Terminal Aerodrome Forecast
Issued by NWS Des Moines, IA

Home | Current Version | Previous Version | Text Only | Print | Product List | Glossary On
Versions: 1 2 3 4 5 6 7 8 9 10 11 12 13 14 15 16 17 18 19 20 21 22 23 24 25 26 27 28
000
FTUS43 KDMX 040520
TAFDSM
TAF
KDSM 040520Z 0406/0506 15005KT P6SM BKN060 OVC250
     FM040800 16010KT 4SM -TSRA SCT015CB OVC040
     FM041100 03008KT 5SM -SHRA BKN035
     FM041300 05009KT P6SM BKN050
     FM042200 10008KT 4SM -TSRA OVC030CB
     FM050300 05008KT 2SM TSRA OVC025CB=

USA.gov is the U.S. government's official web portal to all federal, state and local government web resources and services.